Flight Track Log - Related Links

Times and Time Zones

All times are in EDT time to prevent confusion due to time zone crossing. See the GGA1 flight status page for this flight to view local times or setup timezone preferences in your user account.


Time Position Orientation Groundspeed Altitude Reporting Facility
EDT Latitude Longitude Course Direction KTS MPH feet Rate Location/Type
Sun 05:08:53 PM 33.9714 -83.2897 31° Northeast 104 120 3,800  Level Atlanta Center
Sun 05:10:53 PM 34.0303 -83.3694 312° West 121 139 16,000 4,067 Climbing Atlanta Center
Sun 05:11:53 PM 34.0619 -83.4044 318° Northwest 156 180 16,000  Level Atlanta Center
Sun 05:12:53 PM 34.0453 -83.4472 245° Southwest 131 151 16,000  Level Atlanta Center
Sun 05:13:00 PM 33.9833 -83.6466 270° West  Level FlightAware Approximate
Sun 05:13:53 PM 34.0247 -83.4975 244° Southwest 149 171 16,000  Level Atlanta Center
Sun 05:14:53 PM 34.0000 -83.5453 238° Southwest 181 208 16,000  Level Atlanta Center
Sun 05:15:53 PM 33.9750 -83.6206 248° West 207 238 16,000  Level Atlanta Center
Sun 05:16:53 PM 33.9461 -83.6883 243° Southwest 232 267 16,000  Level Atlanta Center
Sun 05:17:53 PM 33.9150 -83.7608 243° Southwest 238 274 16,000  Level Atlanta Center
Sun 05:18:53 PM 33.8858 -83.8286 243° Southwest 238 274 16,000  Level Atlanta Center
Sun 05:19:53 PM 33.8567 -83.8986 243° Southwest 238 274 16,000  Level Atlanta Center
Sun 05:20:53 PM 33.8275 -83.9689 243° Southwest 238 274 16,000  Level Atlanta Center
Sun 05:21:53 PM 33.7983 -84.0389 243° Southwest 238 274 16,000  Level Atlanta Center
Sun 05:22:53 PM 33.7692 -84.1114 244° Southwest 238 274 16,000  Level Atlanta Center
Sun 05:23:53 PM 33.7419 -84.1711 241° Southwest 238 274 16,000  Level Atlanta Center
Sun 05:24:53 PM 33.7106 -84.2411 242° Southwest 238 274 16,000  Level Atlanta Center
Sun 05:25:53 PM 33.6833 -84.3083 244° Southwest 238 274 16,000  Level Atlanta Center
Sun 05:26:53 PM 33.6519 -84.3808 243° Southwest 238 274 16,000  Level Atlanta Center
Sun 05:27:53 PM 33.6244 -84.4506 245° Southwest 238 274 16,000  Level Atlanta Center
Sun 05:28:53 PM 33.6283 -84.5403 273° West 268 308 16,000  Level Atlanta Center
Sun 05:29:53 PM 33.6281 -84.6250 270° West 251 289 16,000  Level Atlanta Center
Sun 05:30:53 PM 33.6275 -84.7025 270° West 246 283 16,000  Level Atlanta Center
Sun 05:31:53 PM 33.6272 -84.7747 270° West 246 283 16,000  Level Atlanta Center
Sun 05:32:53 PM 33.6225 -84.8619 266° West 246 283 16,000  Level Atlanta Center
Sun 05:33:53 PM 33.6197 -84.9419 268° West 246 283 16,000  Level Atlanta Center
Sun 05:34:53 PM 33.6172 -85.0142 268° West 246 283 16,000  Level Atlanta Center
Sun 05:35:53 PM 33.6167 -85.0914 270° West 246 283 16,000  Level Atlanta Center
Sun 05:36:53 PM 33.6136 -85.1714 267° West 241 277 16,000  Level Atlanta Center
Sun 05:37:53 PM 33.6131 -85.2511 270° West 241 277 16,000  Level Atlanta Center
Sun 05:38:53 PM 33.6100 -85.3308 267° West 241 277 16,000  Level Atlanta Center
Sun 05:39:53 PM 33.6092 -85.4181 269° West 241 277 16,000 -300 Level Atlanta Center
Sun 05:40:53 PM 33.6039 -85.5003 266° West 235 270 15,400 -750 Descending Atlanta Center
Sun 05:41:53 PM 33.6050 -85.5853 271° West 246 283 14,500 -950 Descending Atlanta Center
Sun 05:42:53 PM 33.6039 -85.6750 269° West 261 300 13,500 -962 Descending Atlanta Center
Sun 05:43:39 PM 33.5967 -85.7372 262° West 259 298 12,800 -1,009 Descending Atlanta Center
Sun 05:44:40 PM 33.5933 -85.8319 268° West 262 302 11,700 -806 Descending Atlanta Center
Sun 05:45:53 PM 33.5919 -85.9242 269° West 261 300 11,000 -302 Descending Atlanta Center
Sun 05:46:59 PM 33.5883 -86.0289 268° West 247 284 11,000  Level Atlanta Center
Sun 05:47:53 PM 33.5872 -86.0836 269° West 248 285 11,000  Level Atlanta Center
Sun 05:48:53 PM 33.5672 -86.1653 254° West 248 285 11,000  Level Atlanta Center
Sun 05:49:43 PM 33.5556 -86.2400 259° West 244 281 11,000 -564 Level Atlanta Center
Sun 05:50:50 PM 33.5350 -86.3367 256° West 263 303 9,900 -1,140 Descending Atlanta Center
Sun 05:51:44 PM 33.5231 -86.4111 259° West 273 314 8,700 -1,415 Descending Atlanta Center
Sun 05:52:53 PM 33.5067 -86.5028 258° West 277 319 7,000 -1,567 Descending Atlanta Center
Sun 05:53:58 PM 33.5086 -86.6150 271° West 280 322 5,200 -1,680 Descending Atlanta Center
Sun 05:54:58 PM 33.5089 -86.6997 270° West 245 282 3,500 -1,736 Descending Atlanta Center
Sun 05:55:59 PM 33.5264 -86.7500 293° West 149 171 1,700 -1,770 Descending Atlanta Center
Sun 05:57:00 PM 33.5500 -86.7500 270° West  Level FlightAware Approximate

Login

Don't have an account? Register now (free) for customized features, flight alerts, and more!